createdAt,value
2022-11-09T00:02:46.418Z,5.58
2022-11-09T00:05:56.766Z,5.71
2022-11-09T00:09:06.801Z,5.73
2022-11-09T00:12:10.526Z,5.55
2022-11-09T00:15:13.502Z,5.64
2022-11-09T00:18:16.376Z,5.66
2022-11-09T00:21:24.038Z,5.73
2022-11-09T00:24:26.883Z,5.60
2022-11-09T00:27:29.585Z,5.57
2022-11-09T00:30:32.871Z,5.64
2022-11-09T00:33:35.507Z,5.68
2022-11-09T00:36:38.365Z,5.79
2022-11-09T00:39:43.968Z,5.80
2022-11-09T00:42:46.842Z,5.85
2022-11-09T00:45:51.304Z,5.87
2022-11-09T00:48:56.260Z,5.96
2022-11-09T00:51:59.092Z,6.05
2022-11-09T00:55:02.031Z,6.17
2022-11-09T00:58:04.590Z,6.18
2022-11-09T01:01:16.815Z,6.24
2022-11-09T01:04:19.640Z,6.37
2022-11-09T01:07:22.551Z,6.37
2022-11-09T01:10:25.217Z,6.58
2022-11-09T01:13:29.439Z,6.57
2022-11-09T01:16:32.086Z,6.61
2022-11-09T01:19:35.131Z,6.72
2022-11-09T01:22:37.722Z,6.58
2022-11-09T01:25:41.028Z,6.57
2022-11-09T01:28:44.881Z,6.51
2022-11-09T01:31:48.996Z,6.37
2022-11-09T01:34:51.632Z,6.36
2022-11-09T01:37:54.455Z,6.26
2022-11-09T01:40:57.053Z,6.43
2022-11-09T01:44:18.347Z,6.47
2022-11-09T01:47:25.570Z,6.53
2022-11-09T01:50:36.676Z,6.31
2022-11-09T01:53:43.411Z,6.20
2022-11-09T01:56:49.751Z,6.23
2022-11-09T02:00:04.835Z,6.33
2022-11-09T02:03:30.119Z,6.27
2022-11-09T02:06:36.454Z,6.30
2022-11-09T02:09:55.797Z,6.46
2022-11-09T02:13:02.380Z,6.53
2022-11-09T02:16:13.418Z,6.61
2022-11-09T02:19:16.106Z,6.54
2022-11-09T02:22:19.075Z,6.61
2022-11-09T02:25:21.895Z,6.61
2022-11-09T02:28:26.838Z,6.80
2022-11-09T02:31:35.087Z,6.81
2022-11-09T02:34:38.128Z,6.65
2022-11-09T02:37:49.014Z,6.72
2022-11-09T02:40:53.160Z,6.66
2022-11-09T02:43:56.625Z,6.72
2022-11-09T02:46:59.529Z,6.83
2022-11-09T02:50:02.294Z,6.80
2022-11-09T02:53:05.315Z,6.87
2022-11-09T02:56:08.828Z,6.78
2022-11-09T02:59:11.778Z,6.89
2022-11-09T03:02:14.954Z,7.01
2022-11-09T03:05:17.858Z,6.86
2022-11-09T03:08:20.758Z,6.80
2022-11-09T03:11:23.910Z,6.79
2022-11-09T03:14:26.536Z,6.85
2022-11-09T03:17:29.818Z,6.98
2022-11-09T03:20:33.491Z,6.98
2022-11-09T03:23:37.864Z,6.96
2022-11-09T03:26:40.454Z,7.00
2022-11-09T03:29:43.555Z,7.05
2022-11-09T03:32:50.382Z,7.03
2022-11-09T03:35:54.044Z,6.99
2022-11-09T03:38:57.914Z,6.85
2022-11-09T03:42:01.105Z,6.89
2022-11-09T03:45:03.829Z,7.01
2022-11-09T03:48:07.034Z,7.11
2022-11-09T03:51:09.558Z,7.16
2022-11-09T03:54:12.382Z,7.20
2022-11-09T03:57:14.941Z,7.20
2022-11-09T04:00:20.950Z,7.23
2022-11-09T04:03:25.180Z,7.17
2022-11-09T04:06:27.934Z,6.90
2022-11-09T04:09:30.811Z,7.16
2022-11-09T04:12:33.374Z,7.25
2022-11-09T04:15:36.265Z,7.09
2022-11-09T04:18:38.869Z,7.12
2022-11-09T04:21:41.751Z,7.21
2022-11-09T04:24:44.287Z,7.18
2022-11-09T04:27:47.141Z,7.26
2022-11-09T04:30:49.977Z,7.25
2022-11-09T04:33:52.905Z,7.18
2022-11-09T04:36:55.471Z,7.01
2022-11-09T04:39:58.416Z,7.03
2022-11-09T04:43:05.782Z,7.16
2022-11-09T04:46:08.644Z,7.25
2022-11-09T04:49:11.313Z,7.24
2022-11-09T04:52:14.158Z,7.24
2022-11-09T04:55:16.859Z,7.33
2022-11-09T04:58:24.693Z,7.32
2022-11-09T05:01:27.559Z,7.15
2022-11-09T05:04:30.438Z,7.12
2022-11-09T05:07:39.335Z,7.05
2022-11-09T05:10:42.248Z,7.14
2022-11-09T05:13:45.206Z,6.97
2022-11-09T05:16:48.446Z,7.07
2022-11-09T05:19:55.788Z,7.04
2022-11-09T05:23:18.833Z,7.12
2022-11-09T05:26:21.854Z,7.01
2022-11-09T05:29:24.784Z,6.83
2022-11-09T05:32:27.355Z,6.99
2022-11-09T05:35:30.639Z,7.09
2022-11-09T05:38:33.427Z,7.16
2022-11-09T05:41:36.265Z,7.00
2022-11-09T05:44:38.906Z,6.97
2022-11-09T05:47:43.457Z,7.06
2022-11-09T05:50:46.142Z,6.98
2022-11-09T05:53:49.502Z,7.15
2022-11-09T05:56:52.082Z,7.21
2022-11-09T05:59:56.207Z,7.21
2022-11-09T06:03:07.718Z,7.31
2022-11-09T06:06:13.276Z,7.40
2022-11-09T06:09:15.879Z,7.43
2022-11-09T06:12:18.731Z,7.48
2022-11-09T06:15:21.346Z,7.56
2022-11-09T06:18:25.548Z,7.52
2022-11-09T06:21:29.336Z,7.62
2022-11-09T06:24:35.804Z,7.65
2022-11-09T06:27:43.918Z,7.61
2022-11-09T06:30:57.863Z,7.53
2022-11-09T06:34:02.070Z,7.64
2022-11-09T06:37:08.444Z,7.61
2022-11-09T06:40:13.384Z,7.72
2022-11-09T06:43:16.467Z,7.87
2022-11-09T06:46:23.015Z,7.81
2022-11-09T06:49:25.835Z,7.80
2022-11-09T06:52:28.575Z,8.08
2022-11-09T06:55:33.788Z,8.07
2022-11-09T06:58:37.766Z,8.36
2022-11-09T07:01:40.909Z,8.43
2022-11-09T07:04:47.435Z,8.43
2022-11-09T07:07:51.081Z,8.37
2022-11-09T07:10:54.086Z,8.47
2022-11-09T07:13:57.717Z,8.42
2022-11-09T07:17:00.433Z,8.38
2022-11-09T07:20:04.626Z,8.61
2022-11-09T07:23:07.211Z,8.49
2022-11-09T07:26:10.129Z,8.65
2022-11-09T07:29:12.679Z,8.65
2022-11-09T07:32:15.591Z,8.60
2022-11-09T07:35:18.265Z,8.46
2022-11-09T07:38:21.158Z,8.51
2022-11-09T07:41:23.934Z,8.79
2022-11-09T07:44:26.942Z,8.92
2022-11-09T07:47:44.568Z,8.98
2022-11-09T07:50:47.417Z,9.21
2022-11-09T07:53:50.292Z,9.31
2022-11-09T07:56:53.276Z,9.42
2022-11-09T07:59:55.849Z,9.24
2022-11-09T08:02:59.952Z,9.22
2022-11-09T08:06:18.560Z,9.46
2022-11-09T08:09:21.523Z,9.57
2022-11-09T08:12:24.485Z,9.66
2022-11-09T08:15:27.479Z,9.62
2022-11-09T08:18:30.601Z,9.51
2022-11-09T08:21:35.730Z,9.60
2022-11-09T08:24:39.022Z,9.57
2022-11-09T08:27:42.066Z,9.52
2022-11-09T08:30:45.754Z,9.72
2022-11-09T08:33:48.262Z,10.03
2022-11-09T08:36:51.065Z,9.94
2022-11-09T08:39:53.642Z,9.39
2022-11-09T08:43:01.444Z,9.85
2022-11-09T08:46:04.750Z,9.54
2022-11-09T08:49:08.305Z,9.97
2022-11-09T08:52:11.359Z,9.85
2022-11-09T08:55:15.467Z,9.81
2022-11-09T08:58:19.530Z,10.24
2022-11-09T09:01:23.042Z,10.65
2022-11-09T09:04:25.761Z,10.05
2022-11-09T09:07:28.651Z,10.39
2022-11-09T09:10:35.438Z,10.13
2022-11-09T09:13:43.068Z,9.59
2022-11-09T09:16:46.593Z,10.14
2022-11-09T09:19:50.265Z,10.34
2022-11-09T09:22:52.887Z,10.44
2022-11-09T09:25:58.840Z,10.47
2022-11-09T09:29:01.575Z,10.51
2022-11-09T09:32:04.841Z,10.47
2022-11-09T09:35:07.783Z,10.54
2022-11-09T09:38:10.638Z,10.51
2022-11-09T09:42:11.147Z,10.51
2022-11-09T09:45:19.858Z,10.70
2022-11-09T09:48:42.568Z,10.55
2022-11-09T09:52:04.238Z,10.24
2022-11-09T09:55:48.179Z,10.30
2022-11-09T09:58:58.875Z,10.68
2022-11-09T10:02:01.569Z,10.78
2022-11-09T10:05:16.004Z,11.12
2022-11-09T10:08:27.541Z,11.02
2022-11-09T10:11:36.254Z,10.94
2022-11-09T10:15:17.512Z,11.06
2022-11-09T10:18:34.434Z,10.91
2022-11-09T10:21:51.544Z,11.08
2022-11-09T10:25:32.052Z,11.26
2022-11-09T10:28:37.963Z,11.19
2022-11-09T10:31:55.735Z,11.32
2022-11-09T10:35:16.977Z,11.30
2022-11-09T10:38:32.029Z,11.35
2022-11-09T10:41:53.177Z,11.16
2022-11-09T10:45:25.610Z,11.23
2022-11-09T10:48:47.224Z,11.20
2022-11-09T10:52:42.981Z,11.30
2022-11-09T10:56:20.769Z,11.45
2022-11-09T11:00:03.528Z,11.54
2022-11-09T11:03:25.193Z,11.76
2022-11-09T11:06:46.262Z,11.77
2022-11-09T11:10:16.611Z,11.90
2022-11-09T11:13:37.661Z,11.87
2022-11-09T11:16:59.097Z,11.98
2022-11-09T11:20:30.470Z,12.11
2022-11-09T11:24:13.377Z,11.92
2022-11-09T11:27:45.277Z,12.04
2022-11-09T11:31:13.964Z,12.36
2022-11-09T11:34:58.593Z,12.50
2022-11-09T11:38:21.811Z,12.56
2022-11-09T11:42:21.531Z,12.51
2022-11-09T11:45:49.714Z,12.45
2022-11-09T11:50:00.560Z,12.57
2022-11-09T11:53:43.353Z,12.65
2022-11-09T11:57:46.194Z,12.62
2022-11-09T12:01:39.255Z,12.59
2022-11-09T12:05:22.882Z,12.63
2022-11-09T12:09:10.518Z,12.69
2022-11-09T12:17:07.290Z,12.70
2022-11-09T12:20:33.895Z,12.83
2022-11-09T12:24:00.302Z,12.81
2022-11-09T12:27:33.181Z,12.91
2022-11-09T12:31:13.083Z,13.05
2022-11-09T12:34:57.087Z,13.09
2022-11-09T12:38:24.193Z,13.22
2022-11-09T12:41:47.813Z,13.24
2022-11-09T12:45:34.422Z,13.26
2022-11-09T12:49:01.899Z,13.31
2022-11-09T12:52:28.170Z,13.36
2022-11-09T12:55:54.132Z,13.34
2022-11-09T12:59:22.646Z,13.57
2022-11-09T13:02:55.543Z,13.52
2022-11-09T13:06:26.659Z,13.45
2022-11-09T13:09:54.710Z,13.43
2022-11-09T13:13:15.500Z,13.59
2022-11-09T13:16:36.616Z,13.55
2022-11-09T13:19:57.773Z,13.59
2022-11-09T13:27:46.914Z,13.64
2022-11-09T13:31:10.662Z,13.59
2022-11-09T13:34:50.146Z,13.66
2022-11-09T13:38:30.416Z,13.57
2022-11-09T13:41:51.418Z,13.54
2022-11-09T13:45:30.036Z,13.43
2022-11-09T13:48:54.149Z,13.43
2022-11-09T13:52:49.068Z,13.46
2022-11-09T13:56:28.724Z,13.44
2022-11-09T13:59:50.715Z,13.37
2022-11-09T14:03:26.955Z,13.33
2022-11-09T14:06:48.865Z,13.31
2022-11-09T14:10:09.985Z,13.27
2022-11-09T14:14:10.996Z,13.22
2022-11-09T14:17:42.145Z,13.20
2022-11-09T14:21:31.052Z,13.22
2022-11-09T14:24:52.124Z,13.11
2022-11-09T14:28:31.470Z,13.09
2022-11-09T14:31:52.904Z,12.99
2022-11-09T14:35:23.052Z,12.90
2022-11-09T14:38:47.780Z,12.88
2022-11-09T14:42:18.587Z,12.73
2022-11-09T14:45:51.489Z,12.59
2022-11-09T14:49:13.209Z,12.56
2022-11-09T14:52:34.425Z,12.43
2022-11-09T14:55:58.263Z,12.37
2022-11-09T14:59:32.814Z,12.31
2022-11-09T15:02:55.047Z,12.26
2022-11-09T15:06:17.854Z,12.13
2022-11-09T15:09:48.222Z,11.97
2022-11-09T15:13:09.432Z,11.92
2022-11-09T15:16:31.589Z,11.76
2022-11-09T15:20:15.777Z,11.63
2022-11-09T15:23:43.614Z,11.55
2022-11-09T15:27:43.152Z,11.45
2022-11-09T15:31:04.072Z,11.31
2022-11-09T15:34:27.810Z,11.26
2022-11-09T15:37:51.916Z,11.10
2022-11-09T15:41:19.245Z,11.05
2022-11-09T15:44:40.634Z,11.00
2022-11-09T15:48:02.150Z,10.95
2022-11-09T15:51:23.125Z,10.80
2022-11-09T15:54:46.863Z,10.70
2022-11-09T15:58:14.025Z,10.69
2022-11-09T16:01:35.006Z,10.67
2022-11-09T16:04:56.013Z,10.64
2022-11-09T16:08:16.915Z,10.56
2022-11-09T16:11:38.494Z,10.56
2022-11-09T16:14:59.515Z,10.55
2022-11-09T16:18:25.729Z,10.43
2022-11-09T16:21:47.746Z,10.33
2022-11-09T16:25:09.782Z,10.25
2022-11-09T16:28:30.727Z,10.25
2022-11-09T16:31:52.637Z,10.13
2022-11-09T16:35:29.461Z,10.01
2022-11-09T16:38:54.071Z,10.07
2022-11-09T16:42:17.422Z,9.95
2022-11-09T16:45:46.728Z,9.87
2022-11-09T16:49:07.711Z,9.89
2022-11-09T16:52:28.924Z,9.94
2022-11-09T16:55:49.916Z,10.00
2022-11-09T16:59:11.663Z,10.07
2022-11-09T17:02:33.422Z,10.02
2022-11-09T17:06:01.491Z,9.99
2022-11-09T17:09:23.073Z,10.10
2022-11-09T17:12:44.565Z,9.94
2022-11-09T17:16:09.075Z,10.11
2022-11-09T17:19:32.996Z,10.08
2022-11-09T17:22:54.314Z,10.10
2022-11-09T17:26:15.822Z,10.16
2022-11-09T17:29:37.912Z,10.24
2022-11-09T17:32:59.452Z,10.16
2022-11-09T17:36:41.582Z,10.25
2022-11-09T17:40:02.622Z,10.31
2022-11-09T17:43:23.988Z,10.41
2022-11-09T17:46:45.243Z,10.53
2022-11-09T17:50:08.030Z,10.49
2022-11-09T17:53:29.735Z,10.46
2022-11-09T17:56:51.537Z,10.45
2022-11-09T18:00:13.560Z,10.44
2022-11-09T18:03:36.508Z,10.56
2022-11-09T18:06:57.998Z,10.38
2022-11-09T18:10:19.598Z,10.54
2022-11-09T18:13:41.602Z,10.57
2022-11-09T18:17:03.089Z,10.46
2022-11-09T18:20:28.431Z,10.46
2022-11-09T18:23:49.821Z,10.50
2022-11-09T18:27:11.517Z,10.63
2022-11-09T18:30:34.397Z,10.65
2022-11-09T18:33:55.921Z,10.67
2022-11-09T18:37:16.938Z,10.76
2022-11-09T18:40:37.895Z,10.79
2022-11-09T18:43:59.227Z,10.89
2022-11-09T18:47:20.584Z,10.96
2022-11-09T18:50:42.981Z,10.98
2022-11-09T18:54:04.433Z,10.98
2022-11-09T18:57:27.611Z,11.03
2022-11-09T19:00:58.866Z,11.02
2022-11-09T19:04:20.047Z,10.99
2022-11-09T19:07:41.097Z,11.07
2022-11-09T19:11:09.888Z,11.06
2022-11-09T19:14:31.073Z,11.05
2022-11-09T19:17:52.335Z,11.07
2022-11-09T19:21:41.352Z,11.00
2022-11-09T19:25:02.727Z,11.04
2022-11-09T19:28:24.302Z,11.09
2022-11-09T19:31:46.027Z,11.23
2022-11-09T19:35:07.627Z,11.25
2022-11-09T19:38:28.687Z,11.26
2022-11-09T19:41:50.168Z,11.28
2022-11-09T19:45:12.123Z,11.27
2022-11-09T19:48:37.253Z,11.36
2022-11-09T19:51:58.481Z,11.34
2022-11-09T19:55:19.290Z,11.39
2022-11-09T19:58:40.548Z,11.43
2022-11-09T20:02:01.465Z,11.43
2022-11-09T20:05:22.681Z,11.39
2022-11-09T20:08:45.299Z,11.39
2022-11-09T20:12:25.618Z,11.45
2022-11-09T20:15:49.468Z,11.47
2022-11-09T20:19:13.009Z,11.51
2022-11-09T20:22:34.308Z,11.52
2022-11-09T20:26:07.003Z,11.52
2022-11-09T20:29:28.312Z,11.50
2022-11-09T20:32:49.583Z,11.48
2022-11-09T20:36:11.456Z,11.48
2022-11-09T20:39:32.759Z,11.46
2022-11-09T20:43:00.591Z,11.51
2022-11-09T20:46:23.224Z,11.53
2022-11-09T20:49:47.295Z,11.51
2022-11-09T20:53:09.838Z,11.53
2022-11-09T20:56:31.937Z,11.50
2022-11-09T20:59:53.131Z,11.49
2022-11-09T21:03:14.108Z,11.50
2022-11-09T21:06:35.148Z,11.54
2022-11-09T21:09:57.040Z,11.50
2022-11-09T21:13:18.213Z,11.46
2022-11-09T21:16:40.060Z,11.48
2022-11-09T21:20:00.864Z,11.50
2022-11-09T21:23:21.983Z,11.44
2022-11-09T21:27:01.603Z,11.43
2022-11-09T21:30:23.039Z,11.35
2022-11-09T21:33:44.186Z,11.35
2022-11-09T21:37:05.871Z,11.38
2022-11-09T21:40:26.931Z,11.38
2022-11-09T21:43:48.368Z,11.36
2022-11-09T21:47:09.487Z,11.38
2022-11-09T21:50:30.713Z,11.40
2022-11-09T21:53:51.953Z,11.38
2022-11-09T21:57:13.250Z,11.37
2022-11-09T22:00:34.223Z,11.37
2022-11-09T22:03:55.782Z,11.35
2022-11-09T22:07:16.687Z,11.38
2022-11-09T22:10:38.420Z,11.36
2022-11-09T22:14:17.932Z,11.33
2022-11-09T22:17:39.093Z,11.31
2022-11-09T22:21:00.288Z,11.29
2022-11-09T22:24:21.472Z,11.40
2022-11-09T22:27:42.262Z,11.37
2022-11-09T22:31:04.229Z,11.36
2022-11-09T22:34:25.465Z,11.36
2022-11-09T22:37:46.722Z,11.40
2022-11-09T22:41:11.113Z,11.40
2022-11-09T22:44:32.180Z,11.40
2022-11-09T22:47:53.061Z,11.38
2022-11-09T22:51:16.250Z,11.38
2022-11-09T22:54:39.674Z,11.34
2022-11-09T22:58:00.738Z,11.32
2022-11-09T23:01:21.958Z,11.39
2022-11-09T23:04:43.274Z,11.32
2022-11-09T23:08:04.577Z,11.32
2022-11-09T23:11:25.796Z,11.28
2022-11-09T23:15:05.480Z,11.37
2022-11-09T23:18:45.702Z,11.32
2022-11-09T23:22:06.787Z,11.25
2022-11-09T23:25:46.281Z,11.32
2022-11-09T23:29:07.282Z,11.32
2022-11-09T23:32:28.499Z,11.31
2022-11-09T23:35:49.764Z,11.28
2022-11-09T23:39:10.653Z,11.30
2022-11-09T23:42:31.792Z,11.23
2022-11-09T23:45:52.910Z,11.21
2022-11-09T23:49:13.688Z,11.21
2022-11-09T23:52:34.820Z,11.19
2022-11-09T23:56:00.912Z,11.21
2022-11-09T23:59:23.019Z,11.21
